Ride Results

Brymaroo (11-03-2006)
Ride distance: 80.0 km

Outcomes - Brymaroo (11-03-2006)
Division No. of Entries Retired / DNE Completed Withdrawn Ineligible V/O Percentage Completed
HW 30 - 23 3 - 4 76.67%
MW 49 - 39 4 - 6 79.59%
LW 36 - 30 2 - 4 83.33%
JN 10 - 9 1 - - 90.00%
Totals 125 - 101 10 - 14 80.80%
Results - Brymaroo (11-03-2006)
No. Rider Horse Place Time Leg Speeds Total
Km/Hr
H/R bpm
Heavyweight
16 John Davidson Celebration 1 4:37:00 18.5, 15.9 17.33 35, 48, 47 (Avg:47)
53 David Horton Camelot Retreat Azada 2 5:05:00 18.9, 13.0 15.74 30, 48, 46 (Avg:47)
178 Alwyn Torenbeek Pardon 3 5:54:00 13.2, 13.9 13.56 29, 45, 50 (Avg:47)
38 Dick Collyer Crystabarbara 4 6:07:00 14.6, 11.5 13.08 38, 39, 45 (Avg:42)
144 Derek Armitage Talisman Kadillac 5 6:17:00 13.4, 11.9 12.73 34, 48, 46 (Avg:47)
171 Robert Fenech Mithras Emerald 6 6:22:00 12.9, 12.1 12.57 34, 44, 48 (Avg:46)
198 Ian Tritton Miss Jayne 7 6:25:00 13.0, 11.8 12.47 38, 51, 52 (Avg:51)
191 David Anderson (DAD) Count Lea 8 6:32:00 13.1, 11.2 12.24 36, 38, 44 (Avg:41)
21 Maurice Crombie Te Auri Zahir 8 6:32:00 13.8, 10.7 12.24 41, 54, 46 (Avg:50)
27 Colleen Shaw Azerash Shahreza 10 6:33:00 13.8, 10.6 12.21 36, 46, 48 (Avg:47)
188 Mark Haigh Brookleigh Excalibur 11 6:41:00 12.3, 11.4 11.97 36, 48, 45 (Avg:46)
147 Craig Renner Edenfels Zephyr 12 6:45:00 13.2, 10.4 11.85 31, 36, 36 (Avg:36)
28 Anthony Caslin Timeless 13 6:49:00 17.4, 8.3 11.74 40, 50, 51 (Avg:50)
200 Kirsten Stephen Omani Bondalier 14 6:51:00 12.6, 10.6 11.68 48, 54, 45 (Avg:49)
158 Kim Goss Snip 15 6:57:00 12.5, 10.4 11.51 42, 50, 55 (Avg:52)
48 Michael Toft Bremervale Bey Warlord 16 7:01:00 12.7, 10.0 11.40 36, 44, 44 (Avg:44)
153 Greg Garred Shannonwood Sub 17 7:28:00 11.5, 9.8 10.71 40, 40, 49 (Avg:44)
9 Stan Zischke Star of Bell 18 7:44:00 11.0, 9.5 10.34 40, 46, 51 (Avg:48)
182 David Grove Aloha Princess Di 19 7:45:00 12.4, 8.5 10.32 32, 42, 48 (Avg:45)
189 Peter Birch Kamaret Gypsy 20 7:48:00 12.2, 8.5 10.26 30, 37, 46 (Avg:41)
193 Ven Grasso Mario 20 7:48:00 11.2, 9.2 10.26 41, 40, 48 (Avg:44)
196 Glen Seib Our Allegiance 20 7:48:00 12.2, 8.5 10.26 38, 42, 48 (Avg:45)
185 John Willcox Two Jays John Thomas 23 7:54:00 10.9, 9.2 10.13 41, 48, 52 (Avg:50)
42 Ken Burwell Kalkadoon Nijinsky Lame L2 0:00:00 18.5, 13.0 - 34, 46, 48 (Avg:47)
154 Stephen Harris Kasban Pierre Heart Rate L2 0:00:00 12.9, 8.8 - 36, 50, 80 (Avg:65)
140 Jim Harvey Banera Maverick Lame L2 0:00:00 12.8, 10.9 - 35, 49, 57 (Avg:53)
133 Selwyn Nix Dunbar Mahadik Widthdrawn L2 0:00:00 - - 32, 39, 0 (Avg:19)
145 Tracey Lindsay Tamiah Park El Shai Widthdrawn L1 0:00:00 - - 34, 36 (Avg:36)
11 Russell Rainbird Hillbrae Count Rebellion Heart Rate L1 0:00:00 18.0 - 37, 56 (Avg:56)
184 Christine Willcox Heaney Seafairer Widthdrawn L1 0:00:00 - - 36, 53 (Avg:53)
Middleweight
45 Holly DeStefani Cherox Kariim 1 4:39:00 19.1, 15.3 17.20 30, 49, 48 (Avg:48)
46 Matthew Gadsby Dardanga Fingal 2 4:41:00 17.1, 17.0 17.08 32, 49, 51 (Avg:50)
20 Penny Toft Tora Blar-Zay 2 4:41:00 17.1, 17.0 17.08 32, 39, 40 (Avg:39)
41 Scott Hill Kalkadoon Kismet 4 4:43:00 18.5, 15.3 16.96 36, 44, 42 (Avg:43)
43 Karen Johanson Kalkadoon Kynuna 4 4:43:00 18.5, 15.3 16.96 32, 38, 44 (Avg:41)
7 Laura Axsentieff Shah-Vale Shamal 6 5:02:00 16.3, 15.3 15.89 34, 42, 42 (Avg:42)
49 Jacque Wright Dunbar Lexus 7 5:06:00 18.5, 13.1 15.69 41, 41, 52 (Avg:46)
2 Daniele O'Loughlin El Khar 8 5:08:00 15.4, 15.7 15.58 32, 49, 42 (Avg:45)
50 Derryn Nix Dunbar El Maestro 9 5:12:00 16.1, 14.4 15.38 34, 51, 48 (Avg:49)
52 Jacky Clarke Kalkadoon Sequin 10 5:51:00 14.7, 12.5 13.68 34, 48, 45 (Avg:46)
176 Dale Hargreaves Rio El Saht 11 5:54:00 13.2, 13.9 13.56 41, 51, 48 (Avg:49)
142 Sally Summers Jayhal Shazal 12 5:59:00 13.4, 13.3 13.37 35, 40, 48 (Avg:44)
24 Donna Brooker Hirstglen Fargo 13 6:01:00 13.4, 13.0 13.30 30, 47, 45 (Avg:46)
37 Jillian Crowley Crystalara 14 6:07:00 14.6, 11.5 13.08 38, 44, 48 (Avg:46)
170 Fiona Fenech Belgari Fidesz 15 6:20:00 12.9, 12.2 12.63 44, 48, 40 (Avg:44)
166 Stephen Gray Raaward Samaya 16 6:22:00 12.5, 12.5 12.57 64, 45, 48 (Avg:46)
8 Anne Barlow Tyto Ivan 17 6:23:00 13.2, 11.7 12.53 38, 44, 48 (Avg:46)
12 Brigitte Stamm Dalgangle 17 6:23:00 13.7, 11.3 12.53 37, 39, 42 (Avg:40)
180 Rod Strahan Coolong Park Hanaan 17 6:23:00 13.5, 11.4 12.53 37, 38, 58 (Avg:48)
197 Paul Rogerson Die Kinder Lunar Eclipse 20 6:25:00 13.0, 11.8 12.47 42, 50, 52 (Avg:51)
18 Bruce Seaward Monterra Ibn Silver Magic 21 6:26:00 13.7, 11.1 12.44 31, 42, 44 (Avg:43)
172 Jo Stewart Maxus Tiger Lily 22 6:29:00 12.5, 12.0 12.34 41, 46, 57 (Avg:51)
156 Louis Botha Cameo Esmerelda 23 6:32:00 12.0, 12.4 12.24 35, 41, 46 (Avg:43)
149 Emma Holland Ibn Us Sabil 23 6:32:00 13.3, 11.1 12.24 40, 46, 48 (Avg:47)
26 Julie Kemp Al Baraq 25 6:33:00 13.8, 10.6 12.21 34, 49, 50 (Avg:49)
136 Sandra Bishop Monty 26 6:45:00 13.1, 10.5 11.85 44, 42, 42 (Avg:42)
199 Deborah Sheather Bourhani Azeem 27 6:51:00 12.6, 10.6 11.68 34, 40, 43 (Avg:41)
31 Jaimee Foulsham Abdul 28 7:02:00 12.7, 10.0 11.37 36, 51, 54 (Avg:52)
55 Simone Krahnen Pender Brook Kedor 29 7:04:00 12.6, 10.0 11.32 36, 49, 51 (Avg:50)
40 Albie Knight Abbeywood Romeo 30 7:17:00 13.3, 9.0 10.98 42, 40, 52 (Avg:46)
177 Deborah Krogh Mithras Lancelot 31 7:19:00 12.0, 9.8 10.93 32, 48, 44 (Avg:46)
162 Gillian Grant Sharad Achilla 32 7:25:00 11.1, 10.3 10.79 37, 47, 54 (Avg:50)
139 Ken Moir Heste Arabique Nelson Eddy 32 7:25:00 12.6, 9.1 10.79 37, 44, 42 (Avg:43)
150 Wendy Smith Roshar Talima 34 7:27:00 12.9, 8.8 10.74 36, 45, 42 (Avg:43)
146 Heather Lindsay Lindsay Park Saharanne 35 7:28:00 11.5, 9.8 10.71 37, 42, 48 (Avg:45)
152 Jaime Mansbridge Shannonwood Ezar 35 7:28:00 11.5, 9.8 10.71 40, 44, 42 (Avg:43)
137 Judith Burton Sunnyhaven Yanzee 37 7:30:00 12.1, 9.2 10.67 40, 45, 48 (Avg:46)
5 Sandra Birch Hillbrae Riley 38 7:48:00 12.2, 8.5 10.26 37, 46, 52 (Avg:49)
161 Belinda Gray Koorong Elijah 39 8:10:00 11.6, 8.1 9.80 40, 52, 57 (Avg:54)
17 Jane Davidson Ennovyar Dancing Girl Heart Rate L2 0:00:00 18.5, 15.9 - 38, 44, 66 (Avg:55)
13 Craig Ellison Malcolm Widthdrawn L2 0:00:00 - - 35, 39, 0 (Avg:19)
165 Bridget Nottle True Faith Widthdrawn L2 0:00:00 - - 43, 48, 46 (Avg:47)
32 Cora Becker Obi Rain Dance Lame L1 0:00:00 17.7 - 34, 44 (Avg:44)
1 Clinton Cole Rustan Ramarah Lame L1 0:00:00 19.5 - 36, 49 (Avg:49)
44 Marion Lengronne Karim's Pride Lame L1 0:00:00 19.1 - 31, 48 (Avg:48)
51 Wayne McKinnon Dunbar Aramis Widthdrawn L1 0:00:00 - - 39, 48 (Avg:48)
14 Elsie Newsome Ropa Park Kue-Sera Metabolics non-invasive L1 0:00:00 15.4 - 30, 0 (Avg:0)
190 Brook Sample Bacchante Casablanca Lame L1 0:00:00 12.3 - 37, 42 (Avg:42)
195 Jan Tyrrell Blue Bonnet Widthdrawn L1 0:00:00 - - 48, 44 (Avg:44)
Lightweight
3 Terri Anderson Ashwind 1 4:36:00 18.0, 16.6 17.39 32, 42, 49 (Avg:45)
15 Bec Miller Aquarius Park Chantilly Lace 2 4:37:00 16.1, 18.9 17.33 33, 38, 49 (Avg:43)
47 Anne Jones Carnarvon Cavalier 3 4:39:00 19.1, 15.3 17.20 27, 34, 42 (Avg:38)
25 Jessica Kirsch Zenith Park Quill 4 5:17:00 17.1, 13.2 15.14 30, 38, 38 (Avg:38)
34 Amanda Weier Ashraf Sparkling Prince 5 6:07:00 14.6, 11.5 13.08 40, 43, 48 (Avg:45)
143 Charmaine Bond Niarob Ngym-El-Sadat 6 6:17:00 13.4, 11.9 12.73 40, 53, 48 (Avg:50)
169 Sarrah Lee Fenech Jessie Ima James 7 6:20:00 12.9, 12.2 12.63 40, 50, 49 (Avg:49)
159 Donna Roberts Hirstglen Kezia 8 6:22:00 12.5, 12.5 12.57 32, 35, 48 (Avg:41)
6 Cathy Herve Hilbrae Maxine 9 6:23:00 13.1, 11.8 12.53 43, 40, 40 (Avg:40)
23 Kylie Reid Cherox Magnum 10 6:26:00 13.7, 11.1 12.44 32, 37, 39 (Avg:38)
179 Jan Rainbird Kazkade 11 6:27:00 13.1, 11.5 12.40 36, 52, 39 (Avg:45)
187 Kaylea Maher Sovereeign 12 6:31:00 12.3, 12.1 12.28 39, 50, 48 (Avg:49)
186 Ashlee Shafer Gift 12 6:31:00 12.3, 12.1 12.28 36, 50, 51 (Avg:50)
148 Tomarra Serjeant Winwood Battai 14 6:32:00 13.3, 11.1 12.24 35, 35, 37 (Avg:36)
33 Margaret Harvey Banbra Shadow 15 6:43:00 12.8, 10.9 11.91 31, 42, 43 (Avg:42)
135 Yuko Crease Kai Hai Sterling Aaramis 16 6:45:00 13.1, 10.5 11.85 34, 50, 42 (Avg:46)
29 Angela Hawks Riverdance Nazareth 17 7:00:00 12.2, 10.5 11.43 36, 53, 56 (Avg:54)
30 Deanna Loomes Dumaresq Zahir 18 7:03:00 11.4, 11.2 11.35 38, 50, 50 (Avg:50)
175 Clare Fleming Buzz Minstrel 19 7:06:00 11.6, 10.8 11.27 41, 45, 48 (Avg:46)
141 Yvonne Knight Moondarra Merlin 20 7:17:00 13.3, 9.0 10.98 32, 38, 48 (Avg:43)
163 Shaylee Nicholls Casabella Silver Sovereign 21 7:23:00 11.1, 10.4 10.84 44, 45, 42 (Avg:43)
155 Jeremy Robertson Nerallan Milennium Bug 21 7:23:00 11.1, 10.4 10.84 40, 42, 46 (Avg:44)
130 Cassie Saunders Anatase Roseanna 21 7:23:00 11.4, 10.1 10.84 35, 50, 48 (Avg:49)
167 Michael Gabriel Tonique 24 7:25:00 12.6, 9.1 10.79 39, 42, 42 (Avg:42)
151 Carolyn Strahan Dunwingeri Saahma 25 7:27:00 12.9, 8.8 10.74 36, 55, 51 (Avg:53)
138 Julia Morgillo Escape 26 7:30:00 12.1, 9.2 10.67 59, 52, 49 (Avg:50)
194 Corinne Rees Wongella Fella 27 7:32:00 12.1, 9.2 10.62 42, 48, 54 (Avg:51)
192 Leanne Stevenson PPP Hooney 28 7:47:00 11.2, 9.3 10.28 40, 42, 45 (Avg:43)
183 Sarah Rundmann Ringarah Malik 29 7:54:00 10.9, 9.2 10.13 44, 50, 49 (Avg:49)
160 Sarah Love Rosecliffe Safir 30 8:10:00 11.6, 8.1 9.80 40, 45, 57 (Avg:51)
19 Bridgette Crombie Rombando Tendi Widthdrawn L2 0:00:00 - - 36, 48, 40 (Avg:44)
131 Elise Gough Sundust Sierra Lame L2 0:00:00 11.4, 10.1 - 40, 49, 44 (Avg:46)
22 Molly Hall Pendel Park Zaire Metabolics moderate L2 0:00:00 12.2, 10.5 - 33, 47, 49 (Avg:48)
134 Carly Moore Rowallan Rufous Lame L2 0:00:00 12.6, 9.2 - 40, 46, 54 (Avg:50)
4 Leigh Ann Sample Taljarri Moonlight Pharoah Lame L2 0:00:00 16.3, 15.3 - 38, 46, 50 (Avg:48)
39 Robyn Brazel Thomas Widthdrawn L1 0:00:00 - - 36, 50 (Avg:50)
Junior
36 Terrence Weier Jayhal Ghost 1 5:59:00 13.4, 13.3 13.37 30, 39, 42 (Avg:40)
35 Brianna Weier Thalara 2 6:07:00 14.6, 11.5 13.08 40, 44, 40 (Avg:42)
174 Ian Davidson Woodbournes Gift 3 6:24:00 11.5, 13.9 12.50 36, 37, 40 (Avg:38)
157 Saasha Grogan Barbarella 4 6:31:00 12.3, 12.1 12.28 32, 37, 48 (Avg:42)
168 Amaya Thomas Tallio Muftakher 5 6:50:00 11.2, 12.2 11.71 38, 43, 50 (Avg:46)
132 Erin Krahnen Lenannlaw Hollywood 6 7:04:00 12.6, 10.0 11.32 33, 46, 40 (Avg:43)
54 Colleen Krahnen Wywurri Starlight 6 7:04:00 12.6, 10.0 11.32 38, 48, 48 (Avg:48)
173 Leila Callander Jaseela 8 7:36:00 10.2, 10.8 10.53 36, 38, 38 (Avg:38)
10 Georgia Zischke Bashan Abner 9 7:44:00 11.0, 9.5 10.34 36, 42, 50 (Avg:46)
164 Emily O'Shea Keisha Widthdrawn L1 0:00:00 - - 37, 40 (Avg:40)